sensor_id;sensor_type;location;lat;lon;timestamp;P1;durP1;ratioP1;P2;durP2;ratioP2
39782;SDS011;25462;51.164;17.100;2024-02-16T00:02:56;31.00;;;17.40;;
39782;SDS011;25462;51.164;17.100;2024-02-16T00:08:07;33.90;;;20.00;;
39782;SDS011;25462;51.164;17.100;2024-02-16T00:13:12;26.80;;;17.80;;
39782;SDS011;25462;51.164;17.100;2024-02-16T00:18:18;26.70;;;15.90;;
39782;SDS011;25462;51.164;17.100;2024-02-16T00:23:34;28.20;;;17.40;;
39782;SDS011;25462;51.164;17.100;2024-02-16T00:29:03;29.00;;;16.60;;
39782;SDS011;25462;51.164;17.100;2024-02-16T00:34:55;29.80;;;18.30;;
39782;SDS011;25462;51.164;17.100;2024-02-16T00:40:17;28.90;;;16.30;;
39782;SDS011;25462;51.164;17.100;2024-02-16T00:45:36;28.60;;;16.40;;
39782;SDS011;25462;51.164;17.100;2024-02-16T00:51:12;29.70;;;17.20;;
39782;SDS011;25462;51.164;17.100;2024-02-16T00:56:23;28.90;;;17.40;;
39782;SDS011;25462;51.164;17.100;2024-02-16T01:06:52;32.00;;;18.10;;
39782;SDS011;25462;51.164;17.100;2024-02-16T01:12:06;29.90;;;18.20;;
39782;SDS011;25462;51.164;17.100;2024-02-16T01:17:20;31.40;;;18.30;;
39782;SDS011;25462;51.164;17.100;2024-02-16T01:23:01;32.50;;;18.50;;
39782;SDS011;25462;51.164;17.100;2024-02-16T01:39:43;28.70;;;18.50;;
39782;SDS011;25462;51.164;17.100;2024-02-16T01:45:04;35.40;;;19.60;;
39782;SDS011;25462;51.164;17.100;2024-02-16T01:50:42;36.40;;;20.80;;
39782;SDS011;25462;51.164;17.100;2024-02-16T01:55:47;34.10;;;20.60;;
39782;SDS011;25462;51.164;17.100;2024-02-16T02:00:52;31.80;;;19.90;;
39782;SDS011;25462;51.164;17.100;2024-02-16T02:05:57;31.90;;;19.10;;
39782;SDS011;25462;51.164;17.100;2024-02-16T02:11:03;32.30;;;19.40;;
39782;SDS011;25462;51.164;17.100;2024-02-16T02:16:10;31.90;;;19.60;;
39782;SDS011;25462;51.164;17.100;2024-02-16T02:21:17;32.80;;;20.10;;
39782;SDS011;25462;51.164;17.100;2024-02-16T02:26:25;30.50;;;17.50;;
39782;SDS011;25462;51.164;17.100;2024-02-16T02:31:32;29.40;;;19.60;;
39782;SDS011;25462;51.164;17.100;2024-02-16T02:36:38;26.90;;;16.70;;
39782;SDS011;25462;51.164;17.100;2024-02-16T02:42:14;31.70;;;17.20;;
39782;SDS011;25462;51.164;17.100;2024-02-16T02:47:22;28.40;;;18.80;;
39782;SDS011;25462;51.164;17.100;2024-02-16T02:52:27;31.20;;;19.10;;
39782;SDS011;25462;51.164;17.100;2024-02-16T02:57:35;29.40;;;17.90;;
39782;SDS011;25462;51.164;17.100;2024-02-16T03:02:49;28.80;;;18.40;;
39782;SDS011;25462;51.164;17.100;2024-02-16T03:07:57;39.40;;;21.80;;
39782;SDS011;25462;51.164;17.100;2024-02-16T03:13:07;33.70;;;20.50;;
39782;SDS011;25462;51.164;17.100;2024-02-16T03:18:14;37.30;;;20.80;;
39782;SDS011;25462;51.164;17.100;2024-02-16T03:23:52;34.80;;;20.60;;
39782;SDS011;25462;51.164;17.100;2024-02-16T03:28:57;32.70;;;21.40;;
39782;SDS011;25462;51.164;17.100;2024-02-16T03:34:02;36.60;;;21.30;;
39782;SDS011;25462;51.164;17.100;2024-02-16T03:39:11;35.00;;;19.80;;
39782;SDS011;25462;51.164;17.100;2024-02-16T03:44:24;34.80;;;21.70;;
39782;SDS011;25462;51.164;17.100;2024-02-16T03:49:40;35.30;;;21.50;;
39782;SDS011;25462;51.164;17.100;2024-02-16T03:54:52;34.70;;;21.30;;
39782;SDS011;25462;51.164;17.100;2024-02-16T04:00:02;39.90;;;23.20;;
39782;SDS011;25462;51.164;17.100;2024-02-16T04:05:29;37.70;;;22.20;;
39782;SDS011;25462;51.164;17.100;2024-02-16T04:10:37;35.20;;;22.60;;
39782;SDS011;25462;51.164;17.100;2024-02-16T04:21:39;48.20;;;26.00;;
39782;SDS011;25462;51.164;17.100;2024-02-16T04:26:48;45.80;;;24.90;;
39782;SDS011;25462;51.164;17.100;2024-02-16T04:31:55;43.30;;;25.10;;
39782;SDS011;25462;51.164;17.100;2024-02-16T04:37:06;43.50;;;26.20;;
39782;SDS011;25462;51.164;17.100;2024-02-16T04:42:22;40.90;;;22.90;;
39782;SDS011;25462;51.164;17.100;2024-02-16T04:47:38;38.80;;;22.50;;
39782;SDS011;25462;51.164;17.100;2024-02-16T04:52:57;43.80;;;24.80;;
39782;SDS011;25462;51.164;17.100;2024-02-16T04:58:29;43.10;;;24.20;;
39782;SDS011;25462;51.164;17.100;2024-02-16T05:04:09;38.70;;;22.80;;
39782;SDS011;25462;51.164;17.100;2024-02-16T05:10:22;41.00;;;23.40;;
39782;SDS011;25462;51.164;17.100;2024-02-16T05:15:42;41.50;;;23.10;;
39782;SDS011;25462;51.164;17.100;2024-02-16T05:21:15;40.90;;;23.70;;
39782;SDS011;25462;51.164;17.100;2024-02-16T05:31:59;44.20;;;24.90;;
39782;SDS011;25462;51.164;17.100;2024-02-16T05:37:07;46.20;;;25.20;;
39782;SDS011;25462;51.164;17.100;2024-02-16T06:52:59;39.20;;;21.80;;
39782;SDS011;25462;51.164;17.100;2024-02-16T06:58:01;33.40;;;20.30;;
39782;SDS011;25462;51.164;17.100;2024-02-16T08:06:42;29.50;;;18.30;;
39782;SDS011;25462;51.164;17.100;2024-02-16T10:08:51;13.60;;;7.60;;
39782;SDS011;25462;51.164;17.100;2024-02-16T10:20:44;13.50;;;7.60;;
39782;SDS011;25462;51.164;17.100;2024-02-16T11:05:55;12.40;;;8.60;;
39782;SDS011;25462;51.164;17.100;2024-02-16T11:11:06;8.60;;;6.20;;
39782;SDS011;25462;51.164;17.100;2024-02-16T11:16:17;12.80;;;7.80;;
39782;SDS011;25462;51.164;17.100;2024-02-16T11:27:47;15.00;;;7.80;;
39782;SDS011;25462;51.164;17.100;2024-02-16T12:19:43;10.30;;;6.20;;
39782;SDS011;25462;51.164;17.100;2024-02-16T12:44:59;9.10;;;2.80;;
39782;SDS011;25462;51.164;17.100;2024-02-16T12:50:41;5.00;;;2.80;;
39782;SDS011;25462;51.164;17.100;2024-02-16T12:56:16;6.20;;;2.80;;
39782;SDS011;25462;51.164;17.100;2024-02-16T13:47:53;7.10;;;3.30;;
39782;SDS011;25462;51.164;17.100;2024-02-16T14:44:07;6.00;;;3.90;;
39782;SDS011;25462;51.164;17.100;2024-02-16T14:49:33;9.30;;;3.80;;
39782;SDS011;25462;51.164;17.100;2024-02-16T14:54:38;9.40;;;4.50;;
39782;SDS011;25462;51.164;17.100;2024-02-16T14:59:47;9.20;;;5.00;;
39782;SDS011;25462;51.164;17.100;2024-02-16T15:04:50;7.20;;;4.50;;
39782;SDS011;25462;51.164;17.100;2024-02-16T15:09:57;7.80;;;4.70;;
39782;SDS011;25462;51.164;17.100;2024-02-16T15:15:05;11.60;;;4.10;;
39782;SDS011;25462;51.164;17.100;2024-02-16T15:20:20;8.20;;;3.70;;
39782;SDS011;25462;51.164;17.100;2024-02-16T15:25:34;6.60;;;4.20;;
39782;SDS011;25462;51.164;17.100;2024-02-16T15:30:41;7.80;;;4.50;;
39782;SDS011;25462;51.164;17.100;2024-02-16T15:35:47;8.40;;;4.60;;
39782;SDS011;25462;51.164;17.100;2024-02-16T15:40:51;8.10;;;4.50;;
39782;SDS011;25462;51.164;17.100;2024-02-16T15:45:59;10.70;;;4.40;;
39782;SDS011;25462;51.164;17.100;2024-02-16T15:51:04;12.20;;;4.30;;
39782;SDS011;25462;51.164;17.100;2024-02-16T15:56:15;12.40;;;7.00;;
39782;SDS011;25462;51.164;17.100;2024-02-16T16:06:49;17.00;;;10.50;;
39782;SDS011;25462;51.164;17.100;2024-02-16T16:31:14;17.70;;;7.10;;
39782;SDS011;25462;51.164;17.100;2024-02-16T16:36:22;12.80;;;5.90;;
39782;SDS011;25462;51.164;17.100;2024-02-16T16:41:31;17.50;;;8.10;;
39782;SDS011;25462;51.164;17.100;2024-02-16T16:46:34;22.10;;;11.90;;
39782;SDS011;25462;51.164;17.100;2024-02-16T16:51:37;19.70;;;11.20;;
39782;SDS011;25462;51.164;17.100;2024-02-16T17:02:10;28.70;;;13.60;;
39782;SDS011;25462;51.164;17.100;2024-02-16T17:07:23;19.60;;;9.30;;
39782;SDS011;25462;51.164;17.100;2024-02-16T17:12:33;21.10;;;10.20;;
39782;SDS011;25462;51.164;17.100;2024-02-16T17:17:38;38.70;;;17.60;;
39782;SDS011;25462;51.164;17.100;2024-02-16T17:22:50;59.00;;;25.70;;
39782;SDS011;25462;51.164;17.100;2024-02-16T17:28:00;50.20;;;22.10;;
39782;SDS011;25462;51.164;17.100;2024-02-16T17:33:16;30.20;;;14.70;;
39782;SDS011;25462;51.164;17.100;2024-02-16T17:38:21;29.40;;;14.00;;
39782;SDS011;25462;51.164;17.100;2024-02-16T17:43:27;22.20;;;12.20;;
39782;SDS011;25462;51.164;17.100;2024-02-16T17:48:33;17.60;;;9.50;;
39782;SDS011;25462;51.164;17.100;2024-02-16T17:53:39;14.70;;;7.70;;
39782;SDS011;25462;51.164;17.100;2024-02-16T17:58:45;14.20;;;7.70;;
39782;SDS011;25462;51.164;17.100;2024-02-16T18:03:58;15.40;;;7.80;;
39782;SDS011;25462;51.164;17.100;2024-02-16T18:09:04;16.60;;;8.20;;
39782;SDS011;25462;51.164;17.100;2024-02-16T18:14:12;15.80;;;8.40;;
39782;SDS011;25462;51.164;17.100;2024-02-16T18:19:21;17.40;;;8.00;;
39782;SDS011;25462;51.164;17.100;2024-02-16T18:24:27;13.90;;;7.90;;
39782;SDS011;25462;51.164;17.100;2024-02-16T18:29:33;13.30;;;7.40;;
39782;SDS011;25462;51.164;17.100;2024-02-16T18:34:40;13.90;;;6.60;;
39782;SDS011;25462;51.164;17.100;2024-02-16T18:39:48;11.60;;;6.90;;
39782;SDS011;25462;51.164;17.100;2024-02-16T18:44:52;15.70;;;8.40;;
39782;SDS011;25462;51.164;17.100;2024-02-16T18:50:00;17.90;;;8.80;;
39782;SDS011;25462;51.164;17.100;2024-02-16T18:55:08;17.00;;;7.50;;
39782;SDS011;25462;51.164;17.100;2024-02-16T19:00:13;13.60;;;6.70;;
39782;SDS011;25462;51.164;17.100;2024-02-16T19:05:18;14.30;;;7.50;;
39782;SDS011;25462;51.164;17.100;2024-02-16T19:10:30;21.10;;;7.40;;
39782;SDS011;25462;51.164;17.100;2024-02-16T19:20:42;17.50;;;7.50;;
39782;SDS011;25462;51.164;17.100;2024-02-16T19:25:47;14.30;;;6.90;;
39782;SDS011;25462;51.164;17.100;2024-02-16T19:30:52;16.90;;;6.40;;
39782;SDS011;25462;51.164;17.100;2024-02-16T19:35:59;14.10;;;6.50;;
39782;SDS011;25462;51.164;17.100;2024-02-16T19:41:06;12.80;;;6.60;;
39782;SDS011;25462;51.164;17.100;2024-02-16T19:46:12;23.00;;;7.70;;
39782;SDS011;25462;51.164;17.100;2024-02-16T19:51:18;15.00;;;7.90;;
39782;SDS011;25462;51.164;17.100;2024-02-16T19:56:26;15.00;;;7.70;;
39782;SDS011;25462;51.164;17.100;2024-02-16T20:01:31;18.20;;;9.10;;
39782;SDS011;25462;51.164;17.100;2024-02-16T20:06:40;19.10;;;9.60;;
39782;SDS011;25462;51.164;17.100;2024-02-16T20:11:51;18.00;;;9.60;;
39782;SDS011;25462;51.164;17.100;2024-02-16T20:16:57;14.60;;;8.30;;
39782;SDS011;25462;51.164;17.100;2024-02-16T20:22:11;15.40;;;8.60;;
39782;SDS011;25462;51.164;17.100;2024-02-16T20:27:17;16.20;;;8.60;;
39782;SDS011;25462;51.164;17.100;2024-02-16T20:32:23;16.50;;;9.50;;
39782;SDS011;25462;51.164;17.100;2024-02-16T20:37:44;17.40;;;8.10;;
39782;SDS011;25462;51.164;17.100;2024-02-16T20:42:53;15.60;;;8.60;;
39782;SDS011;25462;51.164;17.100;2024-02-16T20:48:04;14.00;;;7.30;;
39782;SDS011;25462;51.164;17.100;2024-02-16T20:53:12;14.40;;;7.90;;
39782;SDS011;25462;51.164;17.100;2024-02-16T20:58:20;15.90;;;8.00;;
39782;SDS011;25462;51.164;17.100;2024-02-16T21:03:33;13.70;;;7.80;;
39782;SDS011;25462;51.164;17.100;2024-02-16T21:08:59;12.30;;;7.00;;
39782;SDS011;25462;51.164;17.100;2024-02-16T21:14:26;14.30;;;7.50;;
39782;SDS011;25462;51.164;17.100;2024-02-16T21:20:06;14.70;;;8.10;;
39782;SDS011;25462;51.164;17.100;2024-02-16T21:25:15;13.30;;;7.70;;
39782;SDS011;25462;51.164;17.100;2024-02-16T21:30:26;15.40;;;9.10;;
39782;SDS011;25462;51.164;17.100;2024-02-16T21:35:47;17.30;;;9.80;;
39782;SDS011;25462;51.164;17.100;2024-02-16T21:41:21;19.60;;;9.70;;
39782;SDS011;25462;51.164;17.100;2024-02-16T21:46:28;22.00;;;11.30;;
39782;SDS011;25462;51.164;17.100;2024-02-16T21:51:34;25.70;;;11.30;;
39782;SDS011;25462;51.164;17.100;2024-02-16T21:56:48;18.90;;;9.90;;
39782;SDS011;25462;51.164;17.100;2024-02-16T22:01:57;20.70;;;11.10;;
39782;SDS011;25462;51.164;17.100;2024-02-16T22:07:03;25.10;;;11.00;;
39782;SDS011;25462;51.164;17.100;2024-02-16T22:12:13;22.20;;;11.60;;
39782;SDS011;25462;51.164;17.100;2024-02-16T22:17:22;20.90;;;10.90;;
39782;SDS011;25462;51.164;17.100;2024-02-16T22:23:00;24.50;;;10.80;;
39782;SDS011;25462;51.164;17.100;2024-02-16T22:28:11;20.90;;;10.50;;
39782;SDS011;25462;51.164;17.100;2024-02-16T22:33:27;18.00;;;9.40;;
39782;SDS011;25462;51.164;17.100;2024-02-16T22:38:32;18.00;;;10.20;;
39782;SDS011;25462;51.164;17.100;2024-02-16T22:43:40;19.10;;;9.80;;
39782;SDS011;25462;51.164;17.100;2024-02-16T22:48:48;19.70;;;10.80;;
39782;SDS011;25462;51.164;17.100;2024-02-16T22:53:57;19.00;;;8.80;;
39782;SDS011;25462;51.164;17.100;2024-02-16T22:59:11;18.40;;;9.70;;
39782;SDS011;25462;51.164;17.100;2024-02-16T23:04:16;19.60;;;10.70;;
39782;SDS011;25462;51.164;17.100;2024-02-16T23:09:21;21.80;;;10.80;;
39782;SDS011;25462;51.164;17.100;2024-02-16T23:14:34;18.30;;;11.20;;
39782;SDS011;25462;51.164;17.100;2024-02-16T23:19:42;17.70;;;10.40;;
39782;SDS011;25462;51.164;17.100;2024-02-16T23:30:15;18.70;;;9.20;;
39782;SDS011;25462;51.164;17.100;2024-02-16T23:35:35;16.20;;;8.50;;
39782;SDS011;25462;51.164;17.100;2024-02-16T23:40:43;16.10;;;9.00;;
39782;SDS011;25462;51.164;17.100;2024-02-16T23:45:50;13.70;;;7.40;;
39782;SDS011;25462;51.164;17.100;2024-02-16T23:50:55;13.80;;;7.30;;
39782;SDS011;25462;51.164;17.100;2024-02-16T23:56:07;11.80;;;6.20;;
